Weather at Roberts Farm Airport

Public forecast

Using degrees Fahrenheit for public forecast. Weather courtesy of forecast.io.

Closest aviation weather report (METAR) to Roberts Farm Airport

Report is more than 6 hours old.

Closest report is Bradley International Airport, 4.4 nm (8.1 km) NW.

2022/11/14 14:51 (retrieved 2 years ago)

KBDL 141451Z 32020G30KT 10SM FEW045 FEW250 04/M08 A3026 RMK AO2 PK WND 32030/1448 SLP249 T00391083 50016

Closest aviation forecast (TAF) to Roberts Farm Airport

Forecast is more than 12 hours old.

Closest forecast is Bradley International Airport, 4.4 nm (8.1 km) NW.

2023/02/22 18:40 (retrieved 1 year ago)

TAF KBDL 221738Z 2218/2324 28005KT P6SM OVC100 FM222300 15003KT 5SM -SN BR OVC020 FM230300 10004KT 2SM -PL BR OVC003 FM230600 08005KT 4SM -RA BR OVC003 FM231200 03007KT 2SM -RA BR OVC003 FM231700 03007KT 5SM BR VCSH OVC010